sensor_id;sensor_type;location;lat;lon;timestamp;P1;durP1;ratioP1;P2;durP2;ratioP2
13584;SDS011;6863;48.402;9.994;2023-04-24T00:01:38;2.27;;;2.07;;
13584;SDS011;6863;48.402;9.994;2023-04-24T00:04:05;2.43;;;1.80;;
13584;SDS011;6863;48.402;9.994;2023-04-24T00:06:31;1.93;;;1.83;;
13584;SDS011;6863;48.402;9.994;2023-04-24T00:09:02;2.30;;;2.07;;
13584;SDS011;6863;48.402;9.994;2023-04-24T00:11:28;3.17;;;2.10;;
13584;SDS011;6863;48.402;9.994;2023-04-24T00:13:54;2.00;;;1.80;;
13584;SDS011;6863;48.402;9.994;2023-04-24T00:16:21;3.13;;;2.10;;
13584;SDS011;6863;48.402;9.994;2023-04-24T00:18:46;1.70;;;1.60;;
13584;SDS011;6863;48.402;9.994;2023-04-24T00:21:13;2.13;;;1.90;;
13584;SDS011;6863;48.402;9.994;2023-04-24T00:23:39;2.10;;;1.93;;
13584;SDS011;6863;48.402;9.994;2023-04-24T00:26:05;2.20;;;1.77;;
13584;SDS011;6863;48.402;9.994;2023-04-24T00:28:30;2.13;;;2.03;;
13584;SDS011;6863;48.402;9.994;2023-04-24T00:30:56;2.00;;;1.80;;
13584;SDS011;6863;48.402;9.994;2023-04-24T00:33:22;2.63;;;2.07;;
13584;SDS011;6863;48.402;9.994;2023-04-24T00:35:48;2.37;;;2.17;;
13584;SDS011;6863;48.402;9.994;2023-04-24T00:38:13;2.37;;;2.00;;
13584;SDS011;6863;48.402;9.994;2023-04-24T00:40:39;2.50;;;2.00;;
13584;SDS011;6863;48.402;9.994;2023-04-24T00:43:04;2.30;;;2.07;;
13584;SDS011;6863;48.402;9.994;2023-04-24T00:45:30;3.03;;;2.07;;
13584;SDS011;6863;48.402;9.994;2023-04-24T00:47:56;2.40;;;2.20;;
13584;SDS011;6863;48.402;9.994;2023-04-24T00:50:23;2.00;;;1.90;;
13584;SDS011;6863;48.402;9.994;2023-04-24T00:52:50;2.13;;;1.80;;
13584;SDS011;6863;48.402;9.994;2023-04-24T00:55:16;2.23;;;2.03;;
13584;SDS011;6863;48.402;9.994;2023-04-24T00:57:42;2.00;;;1.90;;
13584;SDS011;6863;48.402;9.994;2023-04-24T01:00:08;4.33;;;2.07;;
13584;SDS011;6863;48.402;9.994;2023-04-24T01:02:38;2.20;;;2.10;;
13584;SDS011;6863;48.402;9.994;2023-04-24T01:05:08;1.83;;;1.70;;
13584;SDS011;6863;48.402;9.994;2023-04-24T01:07:34;2.60;;;2.40;;
13584;SDS011;6863;48.402;9.994;2023-04-24T01:10:00;3.37;;;2.53;;
13584;SDS011;6863;48.402;9.994;2023-04-24T01:12:26;2.20;;;2.10;;
13584;SDS011;6863;48.402;9.994;2023-04-24T01:14:52;2.70;;;2.50;;
13584;SDS011;6863;48.402;9.994;2023-04-24T01:17:18;2.33;;;1.90;;
13584;SDS011;6863;48.402;9.994;2023-04-24T01:19:43;3.23;;;2.00;;
13584;SDS011;6863;48.402;9.994;2023-04-24T01:22:15;1.93;;;1.83;;
13584;SDS011;6863;48.402;9.994;2023-04-24T01:24:42;2.43;;;2.23;;
13584;SDS011;6863;48.402;9.994;2023-04-24T01:27:08;4.80;;;2.10;;
13584;SDS011;6863;48.402;9.994;2023-04-24T01:29:35;2.47;;;2.20;;
13584;SDS011;6863;48.402;9.994;2023-04-24T01:32:01;2.07;;;1.90;;
13584;SDS011;6863;48.402;9.994;2023-04-24T01:34:28;2.10;;;1.90;;
13584;SDS011;6863;48.402;9.994;2023-04-24T01:36:54;3.33;;;2.27;;
13584;SDS011;6863;48.402;9.994;2023-04-24T01:39:21;2.80;;;2.30;;
13584;SDS011;6863;48.402;9.994;2023-04-24T01:41:48;2.33;;;1.90;;
13584;SDS011;6863;48.402;9.994;2023-04-24T01:44:15;2.17;;;2.07;;
13584;SDS011;6863;48.402;9.994;2023-04-24T01:46:41;2.00;;;1.90;;
13584;SDS011;6863;48.402;9.994;2023-04-24T01:49:06;2.40;;;2.20;;
13584;SDS011;6863;48.402;9.994;2023-04-24T01:51:32;3.13;;;2.00;;
13584;SDS011;6863;48.402;9.994;2023-04-24T01:53:58;2.10;;;1.90;;
13584;SDS011;6863;48.402;9.994;2023-04-24T01:56:23;3.53;;;2.27;;
13584;SDS011;6863;48.402;9.994;2023-04-24T01:58:50;2.20;;;2.00;;
13584;SDS011;6863;48.402;9.994;2023-04-24T02:01:23;2.93;;;2.33;;
13584;SDS011;6863;48.402;9.994;2023-04-24T02:03:48;3.40;;;2.10;;
13584;SDS011;6863;48.402;9.994;2023-04-24T02:06:14;2.40;;;2.30;;
13584;SDS011;6863;48.402;9.994;2023-04-24T02:08:40;2.70;;;2.50;;
13584;SDS011;6863;48.402;9.994;2023-04-24T02:11:05;2.20;;;2.10;;
13584;SDS011;6863;48.402;9.994;2023-04-24T02:13:31;2.47;;;2.30;;
13584;SDS011;6863;48.402;9.994;2023-04-24T02:15:58;2.40;;;2.20;;
13584;SDS011;6863;48.402;9.994;2023-04-24T02:18:23;2.20;;;2.10;;
13584;SDS011;6863;48.402;9.994;2023-04-24T02:20:49;2.50;;;2.30;;
13584;SDS011;6863;48.402;9.994;2023-04-24T02:23:15;2.23;;;2.10;;
13584;SDS011;6863;48.402;9.994;2023-04-24T02:25:40;2.93;;;2.73;;
13584;SDS011;6863;48.402;9.994;2023-04-24T02:28:06;2.70;;;2.00;;
13584;SDS011;6863;48.402;9.994;2023-04-24T02:33:02;4.23;;;2.27;;
13584;SDS011;6863;48.402;9.994;2023-04-24T02:35:28;2.83;;;2.63;;
13584;SDS011;6863;48.402;9.994;2023-04-24T02:37:54;4.07;;;3.10;;
13584;SDS011;6863;48.402;9.994;2023-04-24T02:40:20;3.47;;;3.00;;
13584;SDS011;6863;48.402;9.994;2023-04-24T02:42:45;2.70;;;2.50;;
13584;SDS011;6863;48.402;9.994;2023-04-24T02:45:11;3.10;;;2.80;;
13584;SDS011;6863;48.402;9.994;2023-04-24T02:47:37;2.43;;;2.23;;
13584;SDS011;6863;48.402;9.994;2023-04-24T02:50:03;2.30;;;2.10;;
13584;SDS011;6863;48.402;9.994;2023-04-24T02:52:29;1.93;;;1.83;;
13584;SDS011;6863;48.402;9.994;2023-04-24T02:54:54;2.23;;;2.13;;
13584;SDS011;6863;48.402;9.994;2023-04-24T02:57:20;2.57;;;2.37;;
13584;SDS011;6863;48.402;9.994;2023-04-24T02:59:46;2.10;;;1.90;;
13584;SDS011;6863;48.402;9.994;2023-04-24T03:02:11;2.87;;;2.13;;
13584;SDS011;6863;48.402;9.994;2023-04-24T03:04:37;2.27;;;2.03;;
13584;SDS011;6863;48.402;9.994;2023-04-24T03:07:02;2.63;;;2.13;;
13584;SDS011;6863;48.402;9.994;2023-04-24T03:09:29;1.87;;;1.77;;
13584;SDS011;6863;48.402;9.994;2023-04-24T03:11:55;1.77;;;1.67;;
13584;SDS011;6863;48.402;9.994;2023-04-24T03:14:21;2.07;;;1.77;;
13584;SDS011;6863;48.402;9.994;2023-04-24T03:16:47;2.27;;;2.10;;
13584;SDS011;6863;48.402;9.994;2023-04-24T03:19:12;2.63;;;2.10;;
13584;SDS011;6863;48.402;9.994;2023-04-24T03:21:38;2.30;;;2.20;;
13584;SDS011;6863;48.402;9.994;2023-04-24T03:24:06;2.30;;;2.00;;
13584;SDS011;6863;48.402;9.994;2023-04-24T03:26:32;3.67;;;2.63;;
13584;SDS011;6863;48.402;9.994;2023-04-24T03:28:58;3.87;;;2.87;;
13584;SDS011;6863;48.402;9.994;2023-04-24T03:31:23;4.50;;;3.40;;
13584;SDS011;6863;48.402;9.994;2023-04-24T03:33:49;3.77;;;3.37;;
13584;SDS011;6863;48.402;9.994;2023-04-24T03:36:16;3.83;;;3.53;;
13584;SDS011;6863;48.402;9.994;2023-04-24T03:38:42;5.03;;;4.00;;
13584;SDS011;6863;48.402;9.994;2023-04-24T03:41:07;4.87;;;3.77;;
13584;SDS011;6863;48.402;9.994;2023-04-24T03:43:33;3.33;;;3.13;;
13584;SDS011;6863;48.402;9.994;2023-04-24T03:45:59;3.80;;;3.30;;
13584;SDS011;6863;48.402;9.994;2023-04-24T03:48:25;3.87;;;3.27;;
13584;SDS011;6863;48.402;9.994;2023-04-24T03:50:50;3.43;;;3.10;;
13584;SDS011;6863;48.402;9.994;2023-04-24T03:53:16;3.60;;;3.30;;
13584;SDS011;6863;48.402;9.994;2023-04-24T03:55:41;3.53;;;3.20;;
13584;SDS011;6863;48.402;9.994;2023-04-24T03:58:07;3.90;;;3.60;;
13584;SDS011;6863;48.402;9.994;2023-04-24T04:00:33;3.80;;;3.50;;
13584;SDS011;6863;48.402;9.994;2023-04-24T04:02:59;3.80;;;3.50;;
13584;SDS011;6863;48.402;9.994;2023-04-24T04:05:25;4.43;;;3.30;;
13584;SDS011;6863;48.402;9.994;2023-04-24T04:07:50;4.07;;;3.77;;
13584;SDS011;6863;48.402;9.994;2023-04-24T04:10:16;3.97;;;3.57;;
13584;SDS011;6863;48.402;9.994;2023-04-24T04:12:42;5.00;;;4.07;;
13584;SDS011;6863;48.402;9.994;2023-04-24T04:15:08;5.00;;;3.63;;
13584;SDS011;6863;48.402;9.994;2023-04-24T04:17:33;4.77;;;4.23;;
13584;SDS011;6863;48.402;9.994;2023-04-24T04:19:59;5.03;;;4.10;;
13584;SDS011;6863;48.402;9.994;2023-04-24T04:22:25;3.73;;;3.43;;
13584;SDS011;6863;48.402;9.994;2023-04-24T04:24:51;4.10;;;3.80;;
13584;SDS011;6863;48.402;9.994;2023-04-24T04:27:16;4.43;;;4.03;;
13584;SDS011;6863;48.402;9.994;2023-04-24T04:29:43;4.80;;;4.37;;
13584;SDS011;6863;48.402;9.994;2023-04-24T04:32:10;4.43;;;4.03;;
13584;SDS011;6863;48.402;9.994;2023-04-24T04:34:36;4.37;;;4.07;;
13584;SDS011;6863;48.402;9.994;2023-04-24T04:37:02;4.47;;;3.70;;
13584;SDS011;6863;48.402;9.994;2023-04-24T04:39:28;5.03;;;4.00;;
13584;SDS011;6863;48.402;9.994;2023-04-24T04:41:54;3.83;;;3.43;;
13584;SDS011;6863;48.402;9.994;2023-04-24T04:44:20;4.47;;;4.07;;
13584;SDS011;6863;48.402;9.994;2023-04-24T04:46:45;3.80;;;3.50;;
13584;SDS011;6863;48.402;9.994;2023-04-24T04:49:12;6.03;;;5.07;;
13584;SDS011;6863;48.402;9.994;2023-04-24T04:51:38;4.63;;;3.53;;
13584;SDS011;6863;48.402;9.994;2023-04-24T04:54:03;3.87;;;3.57;;
13584;SDS011;6863;48.402;9.994;2023-04-24T04:56:29;3.53;;;3.23;;
13584;SDS011;6863;48.402;9.994;2023-04-24T04:58:55;3.50;;;3.20;;
13584;SDS011;6863;48.402;9.994;2023-04-24T05:01:21;4.17;;;3.30;;
13584;SDS011;6863;48.402;9.994;2023-04-24T05:03:48;3.77;;;3.47;;
13584;SDS011;6863;48.402;9.994;2023-04-24T05:06:13;3.17;;;2.50;;
13584;SDS011;6863;48.402;9.994;2023-04-24T05:08:40;3.03;;;2.73;;
13584;SDS011;6863;48.402;9.994;2023-04-24T05:11:05;2.83;;;2.63;;
13584;SDS011;6863;48.402;9.994;2023-04-24T05:13:31;3.43;;;3.13;;
13584;SDS011;6863;48.402;9.994;2023-04-24T05:15:57;3.40;;;2.80;;
13584;SDS011;6863;48.402;9.994;2023-04-24T05:18:23;2.60;;;2.40;;
13584;SDS011;6863;48.402;9.994;2023-04-24T05:20:48;3.00;;;2.17;;
13584;SDS011;6863;48.402;9.994;2023-04-24T05:23:14;2.30;;;2.10;;
13584;SDS011;6863;48.402;9.994;2023-04-24T05:25:39;2.17;;;2.00;;
13584;SDS011;6863;48.402;9.994;2023-04-24T05:28:06;2.17;;;1.80;;
13584;SDS011;6863;48.402;9.994;2023-04-24T05:33:03;1.90;;;1.67;;
13584;SDS011;6863;48.402;9.994;2023-04-24T05:35:29;1.90;;;1.80;;
13584;SDS011;6863;48.402;9.994;2023-04-24T05:37:54;4.20;;;1.90;;
13584;SDS011;6863;48.402;9.994;2023-04-24T05:40:20;1.77;;;1.67;;
13584;SDS011;6863;48.402;9.994;2023-04-24T05:42:45;1.90;;;1.70;;
13584;SDS011;6863;48.402;9.994;2023-04-24T05:45:11;1.47;;;1.37;;
13584;SDS011;6863;48.402;9.994;2023-04-24T05:47:42;1.60;;;1.50;;
13584;SDS011;6863;48.402;9.994;2023-04-24T05:50:09;1.53;;;1.43;;
13584;SDS011;6863;48.402;9.994;2023-04-24T05:52:35;2.80;;;1.90;;
13584;SDS011;6863;48.402;9.994;2023-04-24T05:55:00;2.13;;;1.33;;
13584;SDS011;6863;48.402;9.994;2023-04-24T05:57:26;1.40;;;1.30;;
13584;SDS011;6863;48.402;9.994;2023-04-24T05:59:52;1.70;;;1.57;;
13584;SDS011;6863;48.402;9.994;2023-04-24T06:02:17;1.20;;;1.20;;
13584;SDS011;6863;48.402;9.994;2023-04-24T06:08:24;1.43;;;1.33;;
13584;SDS011;6863;48.402;9.994;2023-04-24T06:26:21;1.83;;;1.73;;
13584;SDS011;6863;48.402;9.994;2023-04-24T06:28:50;2.10;;;1.90;;
13584;SDS011;6863;48.402;9.994;2023-04-24T06:36:37;1.63;;;1.50;;
13584;SDS011;6863;48.402;9.994;2023-04-24T06:39:11;1.83;;;1.47;;
13584;SDS011;6863;48.402;9.994;2023-04-24T06:41:43;2.20;;;2.00;;
13584;SDS011;6863;48.402;9.994;2023-04-24T06:44:09;4.40;;;2.40;;
13584;SDS011;6863;48.402;9.994;2023-04-24T06:46:38;3.73;;;2.40;;
13584;SDS011;6863;48.402;9.994;2023-04-24T06:49:04;2.30;;;2.10;;
13584;SDS011;6863;48.402;9.994;2023-04-24T06:51:30;2.97;;;2.20;;
13584;SDS011;6863;48.402;9.994;2023-04-24T06:56:46;2.47;;;1.80;;
13584;SDS011;6863;48.402;9.994;2023-04-24T06:59:35;1.93;;;1.83;;
13584;SDS011;6863;48.402;9.994;2023-04-24T07:02:10;2.57;;;1.80;;
13584;SDS011;6863;48.402;9.994;2023-04-24T07:04:39;2.30;;;2.00;;
13584;SDS011;6863;48.402;9.994;2023-04-24T07:07:06;1.90;;;1.73;;
13584;SDS011;6863;48.402;9.994;2023-04-24T07:09:32;1.83;;;1.73;;
13584;SDS011;6863;48.402;9.994;2023-04-24T07:12:03;1.33;;;1.30;;
13584;SDS011;6863;48.402;9.994;2023-04-24T07:14:35;1.63;;;1.53;;
13584;SDS011;6863;48.402;9.994;2023-04-24T07:17:05;2.23;;;2.00;;
13584;SDS011;6863;48.402;9.994;2023-04-24T07:19:31;2.83;;;1.60;;
13584;SDS011;6863;48.402;9.994;2023-04-24T07:21:58;1.87;;;1.77;;
13584;SDS011;6863;48.402;9.994;2023-04-24T07:24:24;3.43;;;2.20;;
13584;SDS011;6863;48.402;9.994;2023-04-24T07:26:51;2.03;;;1.83;;
13584;SDS011;6863;48.402;9.994;2023-04-24T07:29:17;2.00;;;1.80;;
13584;SDS011;6863;48.402;9.994;2023-04-24T07:31:43;2.77;;;2.33;;
13584;SDS011;6863;48.402;9.994;2023-04-24T07:34:12;1.87;;;1.77;;
13584;SDS011;6863;48.402;9.994;2023-04-24T07:36:37;2.57;;;1.90;;
13584;SDS011;6863;48.402;9.994;2023-04-24T07:39:03;2.50;;;2.30;;
13584;SDS011;6863;48.402;9.994;2023-04-24T07:41:29;3.33;;;1.83;;
13584;SDS011;6863;48.402;9.994;2023-04-24T07:43:55;2.27;;;2.10;;
13584;SDS011;6863;48.402;9.994;2023-04-24T07:46:21;2.97;;;2.30;;
13584;SDS011;6863;48.402;9.994;2023-04-24T07:48:46;2.20;;;1.90;;
13584;SDS011;6863;48.402;9.994;2023-04-24T07:51:14;2.67;;;2.47;;
13584;SDS011;6863;48.402;9.994;2023-04-24T07:53:43;2.40;;;2.20;;
13584;SDS011;6863;48.402;9.994;2023-04-24T07:56:09;3.40;;;1.90;;
13584;SDS011;6863;48.402;9.994;2023-04-24T07:58:34;2.30;;;2.10;;
13584;SDS011;6863;48.402;9.994;2023-04-24T08:01:00;2.43;;;2.20;;
13584;SDS011;6863;48.402;9.994;2023-04-24T08:03:26;2.50;;;2.30;;
13584;SDS011;6863;48.402;9.994;2023-04-24T08:05:51;3.00;;;2.27;;
13584;SDS011;6863;48.402;9.994;2023-04-24T08:08:17;3.90;;;2.60;;
13584;SDS011;6863;48.402;9.994;2023-04-24T08:10:42;2.77;;;2.57;;
13584;SDS011;6863;48.402;9.994;2023-04-24T08:13:08;2.43;;;2.20;;
13584;SDS011;6863;48.402;9.994;2023-04-24T08:15:34;3.70;;;2.43;;
13584;SDS011;6863;48.402;9.994;2023-04-24T08:17:59;2.57;;;2.37;;
13584;SDS011;6863;48.402;9.994;2023-04-24T08:20:25;2.83;;;2.10;;
13584;SDS011;6863;48.402;9.994;2023-04-24T08:22:51;2.97;;;2.60;;
13584;SDS011;6863;48.402;9.994;2023-04-24T08:25:17;3.03;;;2.00;;
13584;SDS011;6863;48.402;9.994;2023-04-24T08:27:44;2.10;;;1.90;;
13584;SDS011;6863;48.402;9.994;2023-04-24T08:30:09;3.40;;;2.00;;
13584;SDS011;6863;48.402;9.994;2023-04-24T08:32:35;3.27;;;2.17;;
13584;SDS011;6863;48.402;9.994;2023-04-24T08:35:01;2.07;;;1.90;;
13584;SDS011;6863;48.402;9.994;2023-04-24T08:37:41;3.27;;;2.63;;
13584;SDS011;6863;48.402;9.994;2023-04-24T08:40:11;2.43;;;2.23;;
13584;SDS011;6863;48.402;9.994;2023-04-24T08:42:42;5.45;;;2.75;;
13584;SDS011;6863;48.402;9.994;2023-04-24T08:45:09;3.83;;;2.20;;
13584;SDS011;6863;48.402;9.994;2023-04-24T08:47:39;2.25;;;1.88;;
13584;SDS011;6863;48.402;9.994;2023-04-24T08:50:10;4.93;;;1.77;;
13584;SDS011;6863;48.402;9.994;2023-04-24T08:52:36;1.83;;;1.70;;
13584;SDS011;6863;48.402;9.994;2023-04-24T08:55:03;2.90;;;1.90;;
13584;SDS011;6863;48.402;9.994;2023-04-24T08:57:30;1.60;;;1.50;;
13584;SDS011;6863;48.402;9.994;2023-04-24T08:59:57;5.60;;;1.93;;
13584;SDS011;6863;48.402;9.994;2023-04-24T09:02:23;3.50;;;1.77;;
13584;SDS011;6863;48.402;9.994;2023-04-24T09:04:50;2.17;;;1.87;;
13584;SDS011;6863;48.402;9.994;2023-04-24T09:07:17;2.47;;;1.80;;
13584;SDS011;6863;48.402;9.994;2023-04-24T09:09:44;1.93;;;1.80;;
13584;SDS011;6863;48.402;9.994;2023-04-24T09:12:10;1.73;;;1.70;;
13584;SDS011;6863;48.402;9.994;2023-04-24T09:14:39;3.50;;;2.57;;
13584;SDS011;6863;48.402;9.994;2023-04-24T09:17:09;2.47;;;2.17;;
13584;SDS011;6863;48.402;9.994;2023-04-24T09:19:41;2.40;;;2.20;;
13584;SDS011;6863;48.402;9.994;2023-04-24T09:22:13;1.70;;;1.60;;
13584;SDS011;6863;48.402;9.994;2023-04-24T09:24:42;1.67;;;1.57;;
13584;SDS011;6863;48.402;9.994;2023-04-24T09:27:10;3.73;;;2.20;;
13584;SDS011;6863;48.402;9.994;2023-04-24T09:29:37;2.10;;;1.50;;
13584;SDS011;6863;48.402;9.994;2023-04-24T09:32:19;2.70;;;1.63;;
13584;SDS011;6863;48.402;9.994;2023-04-24T09:34:47;1.80;;;1.70;;
13584;SDS011;6863;48.402;9.994;2023-04-24T09:37:25;2.10;;;1.60;;
13584;SDS011;6863;48.402;9.994;2023-04-24T09:42:35;2.10;;;1.87;;
13584;SDS011;6863;48.402;9.994;2023-04-24T09:45:01;1.90;;;1.50;;
13584;SDS011;6863;48.402;9.994;2023-04-24T09:47:27;2.10;;;1.88;;
13584;SDS011;6863;48.402;9.994;2023-04-24T09:49:57;1.40;;;1.40;;
13584;SDS011;6863;48.402;9.994;2023-04-24T09:52:23;1.55;;;1.45;;
13584;SDS011;6863;48.402;9.994;2023-04-24T09:54:53;2.10;;;1.65;;
13584;SDS011;6863;48.402;9.994;2023-04-24T09:57:19;2.05;;;1.50;;
13584;SDS011;6863;48.402;9.994;2023-04-24T09:59:45;1.40;;;1.30;;
13584;SDS011;6863;48.402;9.994;2023-04-24T10:02:18;3.30;;;1.60;;
13584;SDS011;6863;48.402;9.994;2023-04-24T10:04:53;1.83;;;1.60;;
13584;SDS011;6863;48.402;9.994;2023-04-24T10:07:21;1.45;;;1.35;;
13584;SDS011;6863;48.402;9.994;2023-04-24T10:09:47;1.65;;;1.55;;
13584;SDS011;6863;48.402;9.994;2023-04-24T10:12:12;2.53;;;1.67;;
13584;SDS011;6863;48.402;9.994;2023-04-24T10:14:39;1.70;;;1.60;;
13584;SDS011;6863;48.402;9.994;2023-04-24T10:17:05;1.85;;;1.75;;
13584;SDS011;6863;48.402;9.994;2023-04-24T10:19:31;2.67;;;1.90;;
13584;SDS011;6863;48.402;9.994;2023-04-24T10:21:58;2.25;;;1.45;;
13584;SDS011;6863;48.402;9.994;2023-04-24T10:24:24;1.95;;;1.77;;
13584;SDS011;6863;48.402;9.994;2023-04-24T10:26:50;1.45;;;1.35;;
13584;SDS011;6863;48.402;9.994;2023-04-24T10:29:17;1.70;;;1.60;;
13584;SDS011;6863;48.402;9.994;2023-04-24T10:31:44;1.40;;;1.40;;
13584;SDS011;6863;48.402;9.994;2023-04-24T10:34:13;1.60;;;1.50;;
13584;SDS011;6863;48.402;9.994;2023-04-24T10:36:42;1.83;;;1.73;;
13584;SDS011;6863;48.402;9.994;2023-04-24T10:39:13;1.60;;;1.50;;
13584;SDS011;6863;48.402;9.994;2023-04-24T10:41:49;1.48;;;1.30;;
13584;SDS011;6863;48.402;9.994;2023-04-24T10:44:24;2.22;;;1.58;;
13584;SDS011;6863;48.402;9.994;2023-04-24T10:46:52;1.92;;;1.63;;
13584;SDS011;6863;48.402;9.994;2023-04-24T10:49:27;3.83;;;2.30;;
13584;SDS011;6863;48.402;9.994;2023-04-24T10:51:54;1.40;;;1.30;;
13584;SDS011;6863;48.402;9.994;2023-04-24T10:57:28;2.40;;;1.80;;
13584;SDS011;6863;48.402;9.994;2023-04-24T11:00:18;1.67;;;1.40;;
13584;SDS011;6863;48.402;9.994;2023-04-24T11:02:50;1.77;;;1.60;;
13584;SDS011;6863;48.402;9.994;2023-04-24T11:05:55;1.88;;;1.70;;
13584;SDS011;6863;48.402;9.994;2023-04-24T11:08:58;4.43;;;1.60;;
13584;SDS011;6863;48.402;9.994;2023-04-24T11:11:31;1.98;;;1.50;;
13584;SDS011;6863;48.402;9.994;2023-04-24T11:16:38;1.50;;;1.40;;
13584;SDS011;6863;48.402;9.994;2023-04-24T11:19:26;2.05;;;1.65;;
13584;SDS011;6863;48.402;9.994;2023-04-24T11:22:06;1.70;;;1.60;;
13584;SDS011;6863;48.402;9.994;2023-04-24T11:24:40;2.15;;;1.92;;
13584;SDS011;6863;48.402;9.994;2023-04-24T11:33:02;1.70;;;1.60;;
13584;SDS011;6863;48.402;9.994;2023-04-24T11:35:44;2.85;;;1.58;;
13584;SDS011;6863;48.402;9.994;2023-04-24T11:38:10;1.92;;;1.80;;
13584;SDS011;6863;48.402;9.994;2023-04-24T11:40:36;2.50;;;1.90;;
13584;SDS011;6863;48.402;9.994;2023-04-24T11:43:02;2.20;;;2.00;;
13584;SDS011;6863;48.402;9.994;2023-04-24T11:45:30;3.47;;;1.87;;
13584;SDS011;6863;48.402;9.994;2023-04-24T11:47:56;2.03;;;1.93;;
13584;SDS011;6863;48.402;9.994;2023-04-24T11:50:23;2.50;;;2.10;;
13584;SDS011;6863;48.402;9.994;2023-04-24T11:52:51;2.40;;;1.70;;
13584;SDS011;6863;48.402;9.994;2023-04-24T11:57:43;3.07;;;1.80;;
13584;SDS011;6863;48.402;9.994;2023-04-24T12:00:15;2.93;;;1.83;;
13584;SDS011;6863;48.402;9.994;2023-04-24T12:02:42;1.77;;;1.67;;
13584;SDS011;6863;48.402;9.994;2023-04-24T12:05:07;1.70;;;1.60;;
13584;SDS011;6863;48.402;9.994;2023-04-24T12:07:40;2.65;;;2.17;;
13584;SDS011;6863;48.402;9.994;2023-04-24T12:10:09;2.20;;;1.88;;
13584;SDS011;6863;48.402;9.994;2023-04-24T12:12:35;1.77;;;1.67;;
13584;SDS011;6863;48.402;9.994;2023-04-24T12:15:01;3.33;;;1.45;;
13584;SDS011;6863;48.402;9.994;2023-04-24T12:17:32;2.20;;;2.00;;
13584;SDS011;6863;48.402;9.994;2023-04-24T12:19:59;5.25;;;2.33;;
13584;SDS011;6863;48.402;9.994;2023-04-24T12:25:29;1.45;;;1.33;;
13584;SDS011;6863;48.402;9.994;2023-04-24T12:33:02;1.52;;;1.42;;
13584;SDS011;6863;48.402;9.994;2023-04-24T12:35:29;1.23;;;1.23;;
13584;SDS011;6863;48.402;9.994;2023-04-24T12:38:08;1.70;;;1.23;;
13584;SDS011;6863;48.402;9.994;2023-04-24T12:40:39;1.75;;;1.55;;
13584;SDS011;6863;48.402;9.994;2023-04-24T12:43:16;1.60;;;1.50;;
13584;SDS011;6863;48.402;9.994;2023-04-24T12:45:43;1.50;;;1.40;;
13584;SDS011;6863;48.402;9.994;2023-04-24T12:48:09;1.70;;;1.48;;
13584;SDS011;6863;48.402;9.994;2023-04-24T12:50:35;2.97;;;1.70;;
13584;SDS011;6863;48.402;9.994;2023-04-24T12:53:01;3.65;;;1.58;;
13584;SDS011;6863;48.402;9.994;2023-04-24T12:55:27;2.25;;;1.40;;
13584;SDS011;6863;48.402;9.994;2023-04-24T12:57:52;1.50;;;1.40;;
13584;SDS011;6863;48.402;9.994;2023-04-24T13:00:20;1.40;;;1.30;;
13584;SDS011;6863;48.402;9.994;2023-04-24T13:02:46;5.90;;;2.37;;
13584;SDS011;6863;48.402;9.994;2023-04-24T13:05:11;1.58;;;1.40;;
13584;SDS011;6863;48.402;9.994;2023-04-24T13:07:38;5.63;;;1.70;;
13584;SDS011;6863;48.402;9.994;2023-04-24T13:10:05;1.52;;;1.30;;
13584;SDS011;6863;48.402;9.994;2023-04-24T13:12:31;1.38;;;1.27;;
13584;SDS011;6863;48.402;9.994;2023-04-24T13:14:57;1.98;;;1.65;;
13584;SDS011;6863;48.402;9.994;2023-04-24T13:17:23;1.65;;;1.30;;
13584;SDS011;6863;48.402;9.994;2023-04-24T13:19:49;1.43;;;1.40;;
13584;SDS011;6863;48.402;9.994;2023-04-24T13:22:16;3.83;;;1.50;;
13584;SDS011;6863;48.402;9.994;2023-04-24T13:24:43;1.90;;;1.30;;
13584;SDS011;6863;48.402;9.994;2023-04-24T13:27:09;3.73;;;1.80;;
13584;SDS011;6863;48.402;9.994;2023-04-24T13:29:35;3.77;;;1.87;;
13584;SDS011;6863;48.402;9.994;2023-04-24T13:32:02;1.60;;;1.20;;
13584;SDS011;6863;48.402;9.994;2023-04-24T13:34:31;2.00;;;1.10;;
13584;SDS011;6863;48.402;9.994;2023-04-24T13:36:57;1.13;;;1.10;;
13584;SDS011;6863;48.402;9.994;2023-04-24T13:39:26;1.20;;;1.10;;
13584;SDS011;6863;48.402;9.994;2023-04-24T13:42:01;2.63;;;1.33;;
13584;SDS011;6863;48.402;9.994;2023-04-24T13:44:27;2.40;;;1.47;;
13584;SDS011;6863;48.402;9.994;2023-04-24T13:46:53;1.60;;;1.20;;
13584;SDS011;6863;48.402;9.994;2023-04-24T13:49:22;2.03;;;1.30;;
13584;SDS011;6863;48.402;9.994;2023-04-24T13:51:50;1.30;;;1.20;;
13584;SDS011;6863;48.402;9.994;2023-04-24T13:54:17;1.00;;;1.00;;
13584;SDS011;6863;48.402;9.994;2023-04-24T13:56:42;5.50;;;1.30;;
13584;SDS011;6863;48.402;9.994;2023-04-24T13:59:08;1.93;;;1.07;;
13584;SDS011;6863;48.402;9.994;2023-04-24T14:01:34;1.10;;;1.10;;
13584;SDS011;6863;48.402;9.994;2023-04-24T14:04:00;6.97;;;1.97;;
13584;SDS011;6863;48.402;9.994;2023-04-24T14:06:25;3.30;;;1.27;;
13584;SDS011;6863;48.402;9.994;2023-04-24T14:08:51;1.27;;;1.17;;
13584;SDS011;6863;48.402;9.994;2023-04-24T14:11:21;1.70;;;1.10;;
13584;SDS011;6863;48.402;9.994;2023-04-24T14:13:50;2.10;;;1.50;;
13584;SDS011;6863;48.402;9.994;2023-04-24T14:16:16;1.03;;;1.03;;
13584;SDS011;6863;48.402;9.994;2023-04-24T14:18:42;1.88;;;1.60;;
13584;SDS011;6863;48.402;9.994;2023-04-24T14:21:08;2.67;;;1.20;;
13584;SDS011;6863;48.402;9.994;2023-04-24T14:23:33;1.92;;;1.83;;
13584;SDS011;6863;48.402;9.994;2023-04-24T14:25:59;11.27;;;2.15;;
13584;SDS011;6863;48.402;9.994;2023-04-24T14:28:25;1.67;;;1.40;;
13584;SDS011;6863;48.402;9.994;2023-04-24T14:31:03;1.63;;;1.48;;
13584;SDS011;6863;48.402;9.994;2023-04-24T14:33:33;1.65;;;1.52;;
13584;SDS011;6863;48.402;9.994;2023-04-24T14:35:58;1.70;;;1.60;;
13584;SDS011;6863;48.402;9.994;2023-04-24T14:38:24;1.67;;;1.58;;
13584;SDS011;6863;48.402;9.994;2023-04-24T14:40:50;1.67;;;1.58;;
13584;SDS011;6863;48.402;9.994;2023-04-24T14:43:16;2.13;;;1.60;;
13584;SDS011;6863;48.402;9.994;2023-04-24T14:45:41;1.63;;;1.50;;
13584;SDS011;6863;48.402;9.994;2023-04-24T14:48:23;1.60;;;1.50;;
13584;SDS011;6863;48.402;9.994;2023-04-24T14:50:50;1.90;;;1.80;;
13584;SDS011;6863;48.402;9.994;2023-04-24T14:53:19;1.47;;;1.37;;
13584;SDS011;6863;48.402;9.994;2023-04-24T14:55:46;1.40;;;1.40;;
13584;SDS011;6863;48.402;9.994;2023-04-24T14:58:11;1.33;;;1.27;;
13584;SDS011;6863;48.402;9.994;2023-04-24T15:00:37;1.90;;;1.60;;
13584;SDS011;6863;48.402;9.994;2023-04-24T15:03:05;1.60;;;1.50;;
13584;SDS011;6863;48.402;9.994;2023-04-24T15:05:32;1.87;;;1.37;;
13584;SDS011;6863;48.402;9.994;2023-04-24T15:07:59;1.60;;;1.50;;
13584;SDS011;6863;48.402;9.994;2023-04-24T15:10:25;1.43;;;1.30;;
13584;SDS011;6863;48.402;9.994;2023-04-24T15:12:51;1.50;;;1.40;;
13584;SDS011;6863;48.402;9.994;2023-04-24T15:15:17;3.40;;;1.73;;
13584;SDS011;6863;48.402;9.994;2023-04-24T15:17:51;1.50;;;1.40;;
13584;SDS011;6863;48.402;9.994;2023-04-24T15:20:17;1.73;;;1.60;;
13584;SDS011;6863;48.402;9.994;2023-04-24T15:22:45;1.30;;;1.30;;
13584;SDS011;6863;48.402;9.994;2023-04-24T15:25:13;1.27;;;1.27;;
13584;SDS011;6863;48.402;9.994;2023-04-24T15:27:44;1.70;;;1.60;;
13584;SDS011;6863;48.402;9.994;2023-04-24T15:32:45;2.00;;;1.70;;
13584;SDS011;6863;48.402;9.994;2023-04-24T15:35:13;7.23;;;2.57;;
13584;SDS011;6863;48.402;9.994;2023-04-24T15:37:40;2.03;;;1.50;;
13584;SDS011;6863;48.402;9.994;2023-04-24T15:40:06;2.80;;;2.00;;
13584;SDS011;6863;48.402;9.994;2023-04-24T15:42:32;1.73;;;1.60;;
13584;SDS011;6863;48.402;9.994;2023-04-24T15:44:57;3.03;;;1.70;;
13584;SDS011;6863;48.402;9.994;2023-04-24T15:47:24;2.43;;;1.77;;
13584;SDS011;6863;48.402;9.994;2023-04-24T15:49:51;1.87;;;1.40;;
13584;SDS011;6863;48.402;9.994;2023-04-24T15:52:18;2.00;;;1.50;;
13584;SDS011;6863;48.402;9.994;2023-04-24T15:54:44;1.83;;;1.60;;
13584;SDS011;6863;48.402;9.994;2023-04-24T15:57:17;1.73;;;1.63;;
13584;SDS011;6863;48.402;9.994;2023-04-24T15:59:43;1.60;;;1.50;;
13584;SDS011;6863;48.402;9.994;2023-04-24T16:02:11;2.07;;;1.43;;